Time;durP1;ratioP1;P1;durP2;ratioP2;P2;SDS_P1;SDS_P2;PMS_P1;PMS_P2;Temp;Humidity;BMP_temperature;BMP_pressure;BME280_temperature;BME280_humidity;BME280_pressure;Samples;Min_cycle;Max_cycle;Signal;HPM_P1;HPM_P2
2022/04/25 00:01:16;;;;;;;64.47;33.92;;;;;;;;;;6260254;28;20063;-59
2022/04/25 00:04:16;;;;;;;71.35;34.40;;;;;;;;;;6254447;28;20052;-58
2022/04/25 00:07:17;;;;;;;69.22;36.83;;;;;;;;;;6265405;28;20048;-58
2022/04/25 00:10:18;;;;;;;73.18;38.60;;;;;;;;;;6261544;28;20497;-59
2022/04/25 00:13:19;;;;;;;70.65;36.47;;;;;;;;;;6263029;28;20041;-60
2022/04/25 00:16:19;;;;;;;77.43;38.67;;;;;;;;;;6258762;28;20135;-60
2022/04/25 00:19:20;;;;;;;78.60;38.92;;;;;;;;;;6259691;28;20485;-58
2022/04/25 00:22:20;;;;;;;89.10;40.10;;;;;;;;;;6263013;28;20068;-60
2022/04/25 00:25:21;;;;;;;99.82;37.67;;;;;;;;;;6262931;28;20098;-58
2022/04/25 00:28:22;;;;;;;69.63;33.60;;;;;;;;;;6262375;28;20136;-59
2022/04/25 00:31:22;;;;;;;75.20;36.00;;;;;;;;;;6263706;28;20098;-59
2022/04/25 00:34:23;;;;;;;66.30;35.70;;;;;;;;;;6262188;28;20136;-59
2022/04/25 00:37:23;;;;;;;67.55;33.63;;;;;;;;;;6265489;28;20056;-59
2022/04/25 00:40:25;;;;;;;71.78;35.17;;;;;;;;;;6261488;28;20069;-60
2022/04/25 00:43:25;;;;;;;82.80;38.42;;;;;;;;;;6264105;28;20041;-60
2022/04/25 00:46:26;;;;;;;68.68;33.05;;;;;;;;;;6263141;28;20049;-59
2022/04/25 00:49:27;;;;;;;75.20;34.90;;;;;;;;;;6262612;28;20077;-58
2022/04/25 00:52:27;;;;;;;76.40;35.25;;;;;;;;;;6263769;28;20053;-59
2022/04/25 00:55:29;;;;;;;76.50;35.78;;;;;;;;;;6265278;28;20506;-58
2022/04/25 00:58:30;;;;;;;68.80;35.33;;;;;;;;;;6267520;28;20072;-59
2022/04/25 01:01:34;;;;;;;70.38;34.58;;;;;;;;;;6268329;28;20566;-59
2022/04/25 01:04:34;;;;;;;65.95;33.63;;;;;;;;;;6270011;28;20052;-60
2022/04/25 01:07:37;;;;;;;63.97;34.25;;;;;;;;;;6267107;28;20041;-58
2022/04/25 01:10:37;;;;;;;68.32;33.63;;;;;;;;;;6268171;28;20428;-58
2022/04/25 01:13:38;;;;;;;68.72;34.22;;;;;;;;;;6268064;28;20053;-59
2022/04/25 01:16:39;;;;;;;66.93;33.90;;;;;;;;;;6268740;28;20403;-60
2022/04/25 01:19:39;;;;;;;65.97;33.90;;;;;;;;;;6267502;28;20079;-59
2022/04/25 01:22:56;;;;;;;59.50;32.08;;;;;;;;;;6270008;28;20053;-58
2022/04/25 01:29:16;;;;;;;58.05;31.90;;;;;;;;;;6262586;28;20185;-59
2022/04/25 01:32:18;;;;;;;59.05;30.02;;;;;;;;;;6267980;28;20564;-58
2022/04/25 01:35:19;;;;;;;;;;;;;;;;;;6265983;28;20049;-58
2022/04/25 01:38:20;;;;;;;63.00;31.75;;;;;;;;;;6267784;28;19948;-59
2022/04/25 01:41:20;;;;;;;63.97;34.03;;;;;;;;;;6264974;28;20423;-59
2022/04/25 01:44:21;;;;;;;65.32;32.88;;;;;;;;;;6267733;28;20044;-58
2022/04/25 01:47:22;;;;;;;57.20;30.33;;;;;;;;;;6266431;28;20120;-58
2022/04/25 01:50:22;;;;;;;59.80;31.42;;;;;;;;;;6264741;28;20132;-60
2022/04/25 01:53:23;;;;;;;59.88;32.80;;;;;;;;;;6268075;28;20416;-58
2022/04/25 01:56:24;;;;;;;65.30;33.05;;;;;;;;;;6268790;28;20057;-58
2022/04/25 01:59:24;;;;;;;63.33;31.35;;;;;;;;;;6265665;28;20143;-58
2022/04/25 02:02:25;;;;;;;67.40;33.67;;;;;;;;;;6266344;28;20853;-58
2022/04/25 02:05:26;;;;;;;63.40;32.65;;;;;;;;;;6266404;28;20124;-58
2022/04/25 02:08:26;;;;;;;63.15;32.08;;;;;;;;;;6266557;28;20056;-58
2022/04/25 02:11:27;;;;;;;64.03;31.63;;;;;;;;;;6265587;28;20802;-58
2022/04/25 02:14:31;;;;;;;63.95;32.22;;;;;;;;;;6266402;28;20053;-56
2022/04/25 02:17:32;;;;;;;64.38;31.58;;;;;;;;;;6265968;28;20055;-59
2022/04/25 02:20:33;;;;;;;63.47;32.78;;;;;;;;;;6266439;28;20045;-57
2022/04/25 02:23:33;;;;;;;58.40;30.73;;;;;;;;;;6265911;28;20072;-58
2022/04/25 02:26:34;;;;;;;59.90;31.00;;;;;;;;;;6265128;28;20421;-59
2022/04/25 02:29:43;;;;;;;56.53;30.35;;;;;;;;;;6265383;28;20048;-57
2022/04/25 02:32:44;;;;;;;61.28;31.95;;;;;;;;;;6264140;28;20076;-59
2022/04/25 02:35:45;;;;;;;63.38;32.80;;;;;;;;;;6267083;28;20723;-58
2022/04/25 02:38:45;;;;;;;55.58;30.00;;;;;;;;;;6265140;28;20072;-57
2022/04/25 02:41:46;;;;;;;67.05;32.33;;;;;;;;;;6264027;28;20144;-57
2022/04/25 02:44:48;;;;;;;60.28;31.30;;;;;;;;;;6267100;28;20056;-58
2022/04/25 02:47:48;;;;;;;57.60;30.08;;;;;;;;;;6265237;28;20041;-59
2022/04/25 02:50:49;;;;;;;60.60;31.73;;;;;;;;;;6264551;28;20468;-57
2022/04/25 02:53:50;;;;;;;64.65;32.03;;;;;;;;;;6267132;28;20087;-57
2022/04/25 02:56:50;;;;;;;66.82;33.30;;;;;;;;;;6266077;28;20049;-57
2022/04/25 02:59:51;;;;;;;61.03;32.67;;;;;;;;;;6267264;28;20061;-58
2022/04/25 03:02:51;;;;;;;56.58;30.77;;;;;;;;;;6263590;28;20051;-56
2022/04/25 03:05:53;;;;;;;57.53;31.75;;;;;;;;;;6268095;28;20051;-58
2022/04/25 03:08:54;;;;;;;62.92;32.30;;;;;;;;;;6266285;28;20091;-58
2022/04/25 03:11:54;;;;;;;63.65;32.72;;;;;;;;;;6265133;28;20049;-58
2022/04/25 03:14:55;;;;;;;65.38;32.72;;;;;;;;;;6266858;28;20049;-59
2022/04/25 03:17:56;;;;;;;52.08;27.10;;;;;;;;;;6262843;28;20080;-59
2022/04/25 03:20:58;;;;;;;47.42;25.13;;;;;;;;;;6260517;28;20068;-58
2022/04/25 03:23:58;;;;;;;46.55;25.42;;;;;;;;;;6264012;28;20148;-58
2022/04/25 03:26:59;;;;;;;53.72;26.75;;;;;;;;;;6262934;28;20389;-57
2022/04/25 03:30:00;;;;;;;54.80;27.45;;;;;;;;;;6264488;28;20132;-59
2022/04/25 03:33:01;;;;;;;51.03;27.75;;;;;;;;;;6264206;28;20443;-58
2022/04/25 03:36:03;;;;;;;54.55;28.85;;;;;;;;;;6265280;28;20087;-58
2022/04/25 03:39:03;;;;;;;54.45;28.98;;;;;;;;;;6264492;28;20390;-60
2022/04/25 03:42:04;;;;;;;52.97;27.60;;;;;;;;;;6262799;28;20084;-58
2022/04/25 03:45:09;;;;;;;52.90;28.17;;;;;;;;;;6264365;28;20069;-58
2022/04/25 03:48:09;;;;;;;53.97;29.33;;;;;;;;;;6263401;28;20401;-56
2022/04/25 03:51:10;;;;;;;60.83;30.75;;;;;;;;;;6263077;28;20753;-58
2022/04/25 03:54:10;;;;;;;51.13;28.45;;;;;;;;;;6263819;28;20049;-58
2022/04/25 03:57:14;;;;;;;50.38;26.13;;;;;;;;;;6262399;28;20041;-58
2022/04/25 04:00:15;;;;;;;56.35;29.40;;;;;;;;;;6263322;28;20057;-58
2022/04/25 04:03:18;;;;;;;50.97;26.85;;;;;;;;;;6262518;28;20412;-58
2022/04/25 04:06:19;;;;;;;54.67;27.48;;;;;;;;;;6265105;28;20053;-57
2022/04/25 04:12:39;;;;;;;50.85;28.08;;;;;;;;;;6261222;28;20056;-60
2022/04/25 04:15:40;;;;;;;52.72;28.02;;;;;;;;;;6263722;28;20049;-59
2022/04/25 04:18:41;;;;;;;54.97;28.15;;;;;;;;;;6265925;28;20053;-58
2022/04/25 04:21:42;;;;;;;50.97;27.15;;;;;;;;;;6263207;28;20075;-58
2022/04/25 04:24:44;;;;;;;50.07;26.90;;;;;;;;;;6262638;28;20041;-59
2022/04/25 04:27:45;;;;;;;46.85;25.65;;;;;;;;;;6263195;28;20072;-58
2022/04/25 04:30:46;;;;;;;51.30;25.48;;;;;;;;;;6264109;28;20053;-59
2022/04/25 04:33:47;;;;;;;46.97;26.08;;;;;;;;;;6260520;28;20456;-59
2022/04/25 04:36:49;;;;;;;48.72;24.45;;;;;;;;;;6265271;28;20118;-59
2022/04/25 04:39:51;;;;;;;51.03;27.20;;;;;;;;;;6261660;28;20099;-59
2022/04/25 04:42:51;;;;;;;50.10;26.15;;;;;;;;;;6259852;28;20041;-60
2022/04/25 04:45:52;;;;;;;51.00;26.83;;;;;;;;;;6263055;28;20056;-57
2022/04/25 04:48:53;;;;;;;61.95;33.30;;;;;;;;;;6262066;28;20179;-58
2022/04/25 04:51:53;;;;;;;77.43;38.08;;;;;;;;;;6259889;28;20045;-60
2022/04/25 04:54:54;;;;;;;90.28;44.63;;;;;;;;;;6262850;28;20045;-58
2022/04/25 04:57:58;;;;;;;98.93;49.58;;;;;;;;;;6266179;28;20067;-58
2022/04/25 05:00:59;;;;;;;96.32;48.97;;;;;;;;;;6263495;28;20049;-59
2022/04/25 05:03:59;;;;;;;98.30;50.47;;;;;;;;;;6260555;28;20473;-59
2022/04/25 05:07:00;;;;;;;91.53;48.38;;;;;;;;;;6262370;28;20098;-58
2022/04/25 05:10:06;;;;;;;88.93;47.47;;;;;;;;;;6264828;28;20064;-59
2022/04/25 05:13:07;;;;;;;86.90;45.22;;;;;;;;;;6262792;28;20040;-57
2022/04/25 05:16:07;;;;;;;80.80;41.35;;;;;;;;;;6265730;28;20068;-58
2022/04/25 05:19:08;;;;;;;74.43;39.00;;;;;;;;;;6266372;28;20520;-58
2022/04/25 05:22:09;;;;;;;76.20;38.28;;;;;;;;;;6265034;28;20652;-59
2022/04/25 05:25:10;;;;;;;69.68;37.97;;;;;;;;;;6262528;28;20064;-59
2022/04/25 05:28:11;;;;;;;80.60;43.08;;;;;;;;;;6264455;28;20072;-59
2022/04/25 05:31:11;;;;;;;85.32;47.50;;;;;;;;;;6262586;28;20094;-58
2022/04/25 05:34:15;;;;;;;89.80;48.70;;;;;;;;;;6259981;28;20057;-59
2022/04/25 05:37:15;;;;;;;93.60;51.35;;;;;;;;;;6263757;28;20041;-59
2022/04/25 05:40:17;;;;;;;97.53;56.75;;;;;;;;;;6263107;28;20134;-59
2022/04/25 05:43:17;;;;;;;92.97;54.50;;;;;;;;;;6266147;28;20103;-59
2022/04/25 05:46:21;;;;;;;119.60;70.95;;;;;;;;;;6267143;28;20044;-59
2022/04/25 05:52:41;;;;;;;90.75;53.67;;;;;;;;;;6266275;28;20088;-59
2022/04/25 05:55:44;;;;;;;82.53;46.20;;;;;;;;;;6265180;28;20053;-59
2022/04/25 05:58:45;;;;;;;74.97;42.35;;;;;;;;;;6268495;28;20080;-59
2022/04/25 06:01:45;;;;;;;85.88;46.13;;;;;;;;;;6269477;28;20067;-60
2022/04/25 06:04:46;;;;;;;95.00;50.22;;;;;;;;;;6266742;28;20049;-59
2022/04/25 06:07:47;;;;;;;106.88;53.53;;;;;;;;;;6265835;28;20132;-59
2022/04/25 06:10:48;;;;;;;108.80;54.10;;;;;;;;;;6266414;28;20059;-59
2022/04/25 06:13:52;;;;;;;103.32;52.40;;;;;;;;;;6264433;28;20076;-59
2022/04/25 06:16:53;;;;;;;82.90;42.47;;;;;;;;;;6265209;28;20045;-58
2022/04/25 06:19:54;;;;;;;72.53;39.63;;;;;;;;;;6265119;28;20420;-59
2022/04/25 06:22:57;;;;;;;71.53;36.35;;;;;;;;;;6265722;28;20064;-59
2022/04/25 06:25:57;;;;;;;68.35;34.78;;;;;;;;;;6264239;28;20041;-57
2022/04/25 06:28:58;;;;;;;67.18;36.85;;;;;;;;;;6268199;28;20467;-59
2022/04/25 06:32:02;;;;;;;74.68;38.33;;;;;;;;;;6266474;28;20131;-60
2022/04/25 06:35:03;;;;;;;69.57;38.25;;;;;;;;;;6264546;28;20503;-60
2022/04/25 06:38:04;;;;;;;68.43;39.38;;;;;;;;;;6269620;28;20128;-59
2022/04/25 06:41:04;;;;;;;60.45;35.67;;;;;;;;;;6265531;28;20113;-59
2022/04/25 06:44:06;;;;;;;64.28;36.90;;;;;;;;;;6266406;28;20081;-60
2022/04/25 06:47:07;;;;;;;64.95;35.42;;;;;;;;;;6266913;28;20110;-59
2022/04/25 06:50:08;;;;;;;62.75;35.25;;;;;;;;;;6267483;28;20451;-60
2022/04/25 06:53:09;;;;;;;60.95;32.92;;;;;;;;;;6264250;28;20065;-59
2022/04/25 06:56:09;;;;;;;54.88;30.77;;;;;;;;;;6266155;28;20562;-59
2022/04/25 06:59:10;;;;;;;57.13;30.65;;;;;;;;;;6267980;28;20063;-60
2022/04/25 07:02:11;;;;;;;56.67;31.75;;;;;;;;;;6266544;28;20063;-60
2022/04/25 07:05:13;;;;;;;49.73;28.20;;;;;;;;;;6265232;28;20071;-59
2022/04/25 07:08:13;;;;;;;53.00;28.75;;;;;;;;;;6267802;28;20044;-59
2022/04/25 07:11:14;;;;;;;51.05;28.38;;;;;;;;;;6266725;28;20048;-60
2022/04/25 07:14:16;;;;;;;56.17;30.60;;;;;;;;;;6263352;28;20072;-60
2022/04/25 07:17:17;;;;;;;55.38;30.52;;;;;;;;;;6262632;28;20056;-60
2022/04/25 07:20:18;;;;;;;48.53;28.75;;;;;;;;;;6264835;28;21137;-60
2022/04/25 07:29:59;;;;;;;67.18;34.38;;;;;;;;;;6264492;28;20053;-60
2022/04/25 07:33:00;;;;;;;57.10;31.83;;;;;;;;;;6263611;28;20128;-60
2022/04/25 07:36:01;;;;;;;64.90;32.20;;;;;;;;;;6263342;28;20049;-59
2022/04/25 07:39:04;;;;;;;53.08;28.65;;;;;;;;;;6263895;28;20508;-60
2022/04/25 07:42:05;;;;;;;49.95;27.20;;;;;;;;;;6265716;28;20061;-60
2022/04/25 07:45:07;;;;;;;47.08;25.75;;;;;;;;;;6263305;28;20468;-60
2022/04/25 07:48:07;;;;;;;45.53;24.70;;;;;;;;;;6264014;28;20090;-60
2022/04/25 07:51:08;;;;;;;46.58;23.85;;;;;;;;;;6266390;28;20486;-60
2022/04/25 07:54:09;;;;;;;42.80;23.15;;;;;;;;;;6263189;28;20099;-60
2022/04/25 07:57:09;;;;;;;42.42;24.08;;;;;;;;;;6263413;28;20076;-61
2022/04/25 08:00:11;;;;;;;41.63;23.55;;;;;;;;;;6263734;28;20052;-60
2022/04/25 08:03:11;;;;;;;38.88;22.17;;;;;;;;;;6263050;28;20091;-60
2022/04/25 08:06:12;;;;;;;40.03;22.63;;;;;;;;;;6260105;28;20543;-60
2022/04/25 08:09:13;;;;;;;43.58;23.35;;;;;;;;;;6261104;28;20063;-61
2022/04/25 08:18:52;;;;;;;49.00;25.98;;;;;;;;;;6261208;28;20045;-60
2022/04/25 08:21:54;;;;;;;43.60;23.40;;;;;;;;;;6263192;28;20468;-59
2022/04/25 08:24:55;;;;;;;34.88;21.60;;;;;;;;;;6263287;28;20515;-60
2022/04/25 08:27:55;;;;;;;35.45;21.42;;;;;;;;;;6261043;28;20051;-60
2022/04/25 08:30:56;;;;;;;37.05;22.48;;;;;;;;;;6263033;28;20048;-60
2022/04/25 08:33:56;;;;;;;39.83;22.88;;;;;;;;;;6261697;28;20140;-60
2022/04/25 08:36:57;;;;;;;45.50;25.98;;;;;;;;;;6262469;28;20131;-60
2022/04/25 08:39:58;;;;;;;39.70;24.58;;;;;;;;;;6263361;28;20539;-58
2022/04/25 08:43:03;;;;;;;39.55;23.45;;;;;;;;;;6262227;28;20053;-59
2022/04/25 08:46:07;;;;;;;49.38;26.10;;;;;;;;;;6264319;28;20484;-59
2022/04/25 08:49:10;;;;;;;47.22;28.23;;;;;;;;;;6262364;28;20079;-58
2022/04/25 08:52:10;;;;;;;;;;;;;;;;;;6264518;28;20690;-58
2022/04/25 08:55:12;;;;;;;43.95;24.38;;;;;;;;;;6262148;28;20050;-59
2022/04/25 08:58:13;;;;;;;45.78;25.80;;;;;;;;;;6264339;28;20068;-58
2022/04/25 09:01:16;;;;;;;42.03;23.60;;;;;;;;;;6264121;28;20071;-57
2022/04/25 09:04:17;;;;;;;38.15;20.63;;;;;;;;;;6263098;28;20568;-59
2022/04/25 09:07:18;;;;;;;33.95;20.30;;;;;;;;;;6264937;28;20123;-58
2022/04/25 09:10:19;;;;;;;37.05;20.48;;;;;;;;;;6264277;28;20469;-58
2022/04/25 09:13:20;;;;;;;32.15;18.77;;;;;;;;;;6265521;28;20049;-58
2022/04/25 09:16:21;;;;;;;29.98;18.15;;;;;;;;;;6264637;28;20087;-58
2022/04/25 09:19:22;;;;;;;28.52;16.80;;;;;;;;;;6266127;28;20049;-57
2022/04/25 09:22:31;;;;;;;29.98;17.52;;;;;;;;;;6267868;28;20627;-57
2022/04/25 09:25:31;;;;;;;29.20;16.60;;;;;;;;;;6266708;28;20053;-57
2022/04/25 09:28:43;;;;;;;28.55;17.67;;;;;;;;;;6266768;28;20675;-58
2022/04/25 09:31:50;;;;;;;31.77;17.95;;;;;;;;;;6266432;28;20056;-58
2022/04/25 09:34:59;;;;;;;28.48;17.75;;;;;;;;;;6266177;28;20051;-58
2022/04/25 09:38:03;;;;;;;26.90;15.57;;;;;;;;;;6268204;28;20118;-58
2022/04/25 09:41:06;;;;;;;25.52;16.30;;;;;;;;;;6267091;28;20037;-56
2022/04/25 09:44:07;;;;;;;26.63;15.32;;;;;;;;;;6268724;28;20048;-58
2022/04/25 09:47:07;;;;;;;23.40;13.40;;;;;;;;;;6268164;28;20092;-58
2022/04/25 09:50:13;;;;;;;24.30;12.27;;;;;;;;;;6265333;28;20053;-57
2022/04/25 09:53:14;;;;;;;26.17;14.98;;;;;;;;;;6268451;28;20127;-58
2022/04/25 09:56:26;;;;;;;19.80;12.65;;;;;;;;;;6269513;28;20139;-58
2022/04/25 09:59:43;;;;;;;20.20;12.05;;;;;;;;;;6265795;28;20443;-58
2022/04/25 10:02:44;;;;;;;17.52;9.68;;;;;;;;;;6264486;28;20056;-58
2022/04/25 10:05:47;;;;;;;20.05;10.63;;;;;;;;;;6267108;28;20564;-58
2022/04/25 10:08:49;;;;;;;17.13;9.50;;;;;;;;;;6261026;28;20126;-59
2022/04/25 10:11:55;;;;;;;15.02;7.57;;;;;;;;;;6260202;28;20071;-60
2022/04/25 10:14:58;;;;;;;15.02;8.30;;;;;;;;;;6264901;28;20041;-60
2022/04/25 10:18:00;;;;;;;15.50;8.20;;;;;;;;;;6266411;28;20686;-60
2022/04/25 10:21:02;;;;;;;17.15;7.63;;;;;;;;;;6265578;28;20041;-60
2022/04/25 10:24:04;;;;;;;13.75;6.88;;;;;;;;;;6264149;28;20064;-60
2022/04/25 10:27:09;;;;;;;12.50;6.38;;;;;;;;;;6260023;28;20106;-58
2022/04/25 10:30:17;;;;;;;20.52;12.15;;;;;;;;;;6259906;28;20479;-59
2022/04/25 10:33:20;;;;;;;13.27;7.43;;;;;;;;;;6249510;28;20067;-59
2022/04/25 10:36:39;;;;;;;11.63;7.05;;;;;;;;;;6253643;28;20057;-58
2022/04/25 10:39:47;;;;;;;11.80;6.68;;;;;;;;;;6256101;28;20616;-59
2022/04/25 10:46:13;;;;;;;17.30;8.85;;;;;;;;;;6252015;28;20068;-59
2022/04/25 10:49:27;;;;;;;28.55;14.55;;;;;;;;;;6257597;28;20671;-58
2022/04/25 10:52:34;;;;;;;28.23;15.05;;;;;;;;;;6253817;28;20087;-57
2022/04/25 10:55:42;;;;;;;26.70;14.57;;;;;;;;;;6253007;28;20049;-59
2022/04/25 10:58:43;;;;;;;22.48;12.80;;;;;;;;;;6248909;28;20107;-58
2022/04/25 11:01:44;;;;;;;22.30;12.75;;;;;;;;;;6251973;28;20045;-58
2022/04/25 11:04:44;;;;;;;24.08;13.52;;;;;;;;;;6255417;28;20056;-59
2022/04/25 11:07:45;;;;;;;24.58;13.50;;;;;;;;;;6254299;28;20057;-59
2022/04/25 11:10:58;;;;;;;19.58;11.32;;;;;;;;;;6253629;28;20134;-59
2022/04/25 11:14:04;;;;;;;17.70;9.95;;;;;;;;;;6255630;28;20667;-59
2022/04/25 11:17:15;;;;;;;16.35;9.05;;;;;;;;;;6255063;28;20052;-60
2022/04/25 11:20:55;;;;;;;12.40;7.67;;;;;;;;;;6253667;28;20542;-60
2022/04/25 11:23:58;;;;;;;13.18;7.15;;;;;;;;;;6255061;28;20792;-59
2022/04/25 11:27:04;;;;;;;11.73;6.28;;;;;;;;;;6255346;28;20048;-60
2022/04/25 11:30:15;;;;;;;10.10;5.07;;;;;;;;;;6254942;28;20052;-59
2022/04/25 11:33:16;;;;;;;10.07;5.77;;;;;;;;;;6254497;28;20144;-57
2022/04/25 11:36:21;;;;;;;9.80;5.78;;;;;;;;;;6255584;28;20369;-59
2022/04/25 11:42:41;;;;;;;9.45;5.82;;;;;;;;;;6250485;28;20087;-59
2022/04/25 11:45:41;;;;;;;11.35;5.82;;;;;;;;;;6252473;28;20577;-59
2022/04/25 11:48:46;;;;;;;9.85;6.28;;;;;;;;;;6254329;28;20080;-59
2022/04/25 11:51:50;;;;;;;8.88;6.22;;;;;;;;;;6250201;28;20612;-61
2022/04/25 11:54:50;;;;;;;11.73;6.60;;;;;;;;;;6252853;28;20135;-59
2022/04/25 11:57:51;;;;;;;10.15;6.20;;;;;;;;;;6254427;28;20164;-60
2022/04/25 12:00:52;;;;;;;10.13;6.38;;;;;;;;;;6253524;28;20068;-59
2022/04/25 12:04:21;;;;;;;11.23;6.03;;;;;;;;;;6253914;28;20056;-60
2022/04/25 12:07:22;;;;;;;9.02;5.95;;;;;;;;;;6253050;28;20995;-59
2022/04/25 12:17:05;;;;;;;10.73;6.90;;;;;;;;;;6249871;28;20056;-61
2022/04/25 12:20:09;;;;;;;12.05;6.97;;;;;;;;;;6252476;28;20554;-58
2022/04/25 12:23:20;;;;;;;13.95;9.38;;;;;;;;;;6252489;28;20620;-58
2022/04/25 12:26:23;;;;;;;14.20;8.60;;;;;;;;;;6252718;28;20132;-59
2022/04/25 12:29:24;;;;;;;15.38;9.10;;;;;;;;;;6253096;28;20049;-59
2022/04/25 12:32:25;;;;;;;20.10;12.55;;;;;;;;;;6252485;28;20753;-58
2022/04/25 12:35:25;;;;;;;24.10;14.63;;;;;;;;;;6253147;28;20053;-58
2022/04/25 12:38:38;;;;;;;25.33;16.17;;;;;;;;;;6252916;28;20469;-58
2022/04/25 12:42:01;;;;;;;33.60;19.27;;;;;;;;;;6252077;28;20576;-59
2022/04/25 12:45:02;;;;;;;33.88;19.98;;;;;;;;;;6253903;28;20073;-58
2022/04/25 12:48:04;;;;;;;33.03;20.15;;;;;;;;;;6252833;28;20408;-60
2022/04/25 12:51:05;;;;;;;31.88;20.48;;;;;;;;;;6253603;28;20098;-59
2022/04/25 12:54:22;;;;;;;34.58;20.02;;;;;;;;;;6258161;28;20329;-59
2022/04/25 12:57:24;;;;;;;23.13;14.43;;;;;;;;;;6256814;28;20128;-59
2022/04/25 13:00:29;;;;;;;22.63;16.10;;;;;;;;;;6251550;28;20053;-60
2022/04/25 13:03:30;;;;;;;22.55;15.07;;;;;;;;;;6253565;28;20187;-60
2022/04/25 13:06:31;;;;;;;29.07;17.50;;;;;;;;;;6257277;28;20047;-59
2022/04/25 13:09:32;;;;;;;27.95;16.58;;;;;;;;;;6257695;28;20057;-60
2022/04/25 13:12:37;;;;;;;25.70;16.23;;;;;;;;;;6257368;28;20051;-60
2022/04/25 13:15:38;;;;;;;28.30;17.48;;;;;;;;;;6257044;28;20049;-61
2022/04/25 13:18:39;;;;;;;31.17;17.50;;;;;;;;;;6257945;28;20098;-60
2022/04/25 13:21:42;;;;;;;26.17;16.75;;;;;;;;;;6255788;28;20049;-59
2022/04/25 13:24:43;;;;;;;25.00;14.70;;;;;;;;;;6260324;28;20153;-59
2022/04/25 13:27:44;;;;;;;21.50;13.48;;;;;;;;;;6260517;28;20044;-60
2022/04/25 13:30:45;;;;;;;20.63;13.52;;;;;;;;;;6256140;28;20041;-59
2022/04/25 13:33:45;;;;;;;19.88;12.73;;;;;;;;;;6256505;28;20049;-60
2022/04/25 13:36:46;;;;;;;17.15;11.98;;;;;;;;;;6257911;28;20105;-60
2022/04/25 13:39:46;;;;;;;17.33;10.73;;;;;;;;;;6257537;28;20517;-59
2022/04/25 13:42:48;;;;;;;16.00;9.20;;;;;;;;;;6254572;28;20082;-61
2022/04/25 13:45:49;;;;;;;15.32;9.18;;;;;;;;;;6257947;28;20049;-61
2022/04/25 13:48:50;;;;;;;13.90;8.93;;;;;;;;;;6256137;28;20075;-61
2022/04/25 13:51:51;;;;;;;15.23;9.10;;;;;;;;;;6255514;28;20207;-62
2022/04/25 13:54:52;;;;;;;12.40;7.85;;;;;;;;;;6257776;28;20060;-61
2022/04/25 13:57:52;;;;;;;11.55;6.90;;;;;;;;;;6256833;28;20056;-60
2022/04/25 14:00:53;;;;;;;10.88;5.63;;;;;;;;;;6255540;28;21522;-61
2022/04/25 14:03:54;;;;;;;7.28;4.05;;;;;;;;;;6257846;28;20055;-60
2022/04/25 14:06:55;;;;;;;5.72;3.30;;;;;;;;;;6255818;28;21013;-61
2022/04/25 14:09:55;;;;;;;5.80;3.22;;;;;;;;;;6253940;28;20053;-61
2022/04/25 14:12:56;;;;;;;5.72;3.10;;;;;;;;;;6256768;28;20049;-60
2022/04/25 14:15:57;;;;;;;5.55;2.97;;;;;;;;;;6254225;28;20872;-60
2022/04/25 14:18:57;;;;;;;6.13;3.13;;;;;;;;;;6256059;28;20057;-60
2022/04/25 14:21:58;;;;;;;6.35;3.40;;;;;;;;;;6253493;28;20285;-61
2022/04/25 14:25:00;;;;;;;7.20;3.60;;;;;;;;;;6255291;28;20631;-61
2022/04/25 14:28:03;;;;;;;8.20;4.00;;;;;;;;;;6256471;28;20060;-60
2022/04/25 14:31:06;;;;;;;8.77;4.38;;;;;;;;;;6251941;28;20155;-60
2022/04/25 14:34:07;;;;;;;10.00;5.28;;;;;;;;;;6254723;28;20077;-60
2022/04/25 14:37:07;;;;;;;9.30;5.25;;;;;;;;;;6253279;28;20079;-60
2022/04/25 14:40:08;;;;;;;11.07;6.60;;;;;;;;;;6254650;28;20052;-61
2022/04/25 14:43:09;;;;;;;15.27;7.78;;;;;;;;;;6254364;28;20135;-61
2022/04/25 14:46:11;;;;;;;12.93;7.60;;;;;;;;;;6256116;28;20064;-60
2022/04/25 14:49:15;;;;;;;13.55;8.02;;;;;;;;;;6254950;28;20127;-61
2022/04/25 14:55:35;;;;;;;11.30;6.57;;;;;;;;;;6256032;28;20049;-60
2022/04/25 14:58:36;;;;;;;13.63;7.88;;;;;;;;;;6252103;28;20092;-60
2022/04/25 15:01:36;;;;;;;14.65;8.00;;;;;;;;;;6251186;28;20468;-60
2022/04/25 15:04:37;;;;;;;21.35;11.02;;;;;;;;;;6253549;28;20096;-60
2022/04/25 15:07:38;;;;;;;11.55;7.10;;;;;;;;;;6256257;28;20119;-61
2022/04/25 15:10:40;;;;;;;16.17;9.20;;;;;;;;;;6255140;28;20057;-62
2022/04/25 15:13:41;;;;;;;15.18;8.88;;;;;;;;;;6254016;28;20061;-62
2022/04/25 15:16:41;;;;;;;15.27;9.20;;;;;;;;;;6255083;28;20480;-60
2022/04/25 15:19:42;;;;;;;13.43;8.52;;;;;;;;;;6254598;28;20053;-61
2022/04/25 15:22:43;;;;;;;12.48;7.90;;;;;;;;;;6249299;28;20103;-60
2022/04/25 15:25:43;;;;;;;11.80;7.45;;;;;;;;;;6254735;28;20531;-60
2022/04/25 15:28:44;;;;;;;12.75;7.55;;;;;;;;;;6254621;28;20320;-61
2022/04/25 15:31:44;;;;;;;13.07;7.78;;;;;;;;;;6253654;28;20122;-61
2022/04/25 15:34:47;;;;;;;11.30;7.20;;;;;;;;;;6255665;28;20065;-61
2022/04/25 15:37:47;;;;;;;;;;;;;;;;;;6256436;28;20053;-60
2022/04/25 15:40:50;;;;;;;15.20;8.48;;;;;;;;;;6254986;28;19991;-60
2022/04/25 15:43:51;;;;;;;15.02;8.90;;;;;;;;;;6255554;28;20638;-61
2022/04/25 15:46:54;;;;;;;15.23;9.02;;;;;;;;;;6256547;28;20130;-61
2022/04/25 15:49:55;;;;;;;17.48;10.45;;;;;;;;;;6255504;28;20167;-61
2022/04/25 15:52:56;;;;;;;16.02;9.82;;;;;;;;;;6246481;28;20049;-61
2022/04/25 15:59:16;;;;;;;19.52;11.68;;;;;;;;;;6253771;28;20605;-60
2022/04/25 16:02:16;;;;;;;15.88;9.93;;;;;;;;;;6250950;28;20045;-61
2022/04/25 16:05:17;;;;;;;17.92;10.57;;;;;;;;;;6237819;28;21554;-61
2022/04/25 16:08:22;;;;;;;17.75;10.07;;;;;;;;;;6254075;28;20057;-61
2022/04/25 16:11:23;;;;;;;18.25;11.40;;;;;;;;;;6247504;28;20107;-60
2022/04/25 16:14:23;;;;;;;17.23;10.35;;;;;;;;;;6252929;28;20053;-61
2022/04/25 16:17:24;;;;;;;17.92;11.18;;;;;;;;;;6251294;28;20060;-61
2022/04/25 16:20:24;;;;;;;19.55;12.05;;;;;;;;;;6252572;28;20049;-60
2022/04/25 16:23:25;;;;;;;20.98;11.73;;;;;;;;;;6252649;28;21262;-60
2022/04/25 16:26:26;;;;;;;21.65;11.20;;;;;;;;;;6253233;28;20483;-60
2022/04/25 16:29:26;;;;;;;19.17;10.77;;;;;;;;;;6256738;28;20140;-61
2022/04/25 16:32:27;;;;;;;18.70;11.60;;;;;;;;;;6250336;28;20047;-60
2022/04/25 16:35:28;;;;;;;16.33;8.98;;;;;;;;;;6253367;28;20553;-60
2022/04/25 16:38:28;;;;;;;15.48;8.38;;;;;;;;;;6254052;28;20103;-60
2022/04/25 16:41:30;;;;;;;14.18;8.73;;;;;;;;;;6253240;28;20057;-61
2022/04/25 16:44:32;;;;;;;14.75;8.43;;;;;;;;;;6253901;28;20037;-60
2022/04/25 16:47:32;;;;;;;;;;;;;;;;;;6256788;28;20049;-61
2022/04/25 16:50:33;;;;;;;19.27;9.93;;;;;;;;;;6257226;28;20466;-60
2022/04/25 16:53:34;;;;;;;15.40;8.77;;;;;;;;;;6252301;28;20045;-60
2022/04/25 16:56:36;;;;;;;13.65;8.20;;;;;;;;;;6256626;28;20140;-60
2022/04/25 16:59:38;;;;;;;14.18;8.35;;;;;;;;;;6252499;28;20045;-61
2022/04/25 17:02:39;;;;;;;16.15;9.75;;;;;;;;;;6247086;28;20045;-61
2022/04/25 17:05:40;;;;;;;18.00;10.55;;;;;;;;;;6256176;28;20090;-60
2022/04/25 17:08:40;;;;;;;17.33;10.88;;;;;;;;;;6254993;28;20562;-61
2022/04/25 17:11:41;;;;;;;21.50;10.73;;;;;;;;;;6251426;28;20057;-61
2022/04/25 17:14:41;;;;;;;18.50;11.73;;;;;;;;;;6250075;28;20071;-61
2022/04/25 17:17:42;;;;;;;16.75;10.48;;;;;;;;;;6254111;28;20543;-60
2022/04/25 17:20:43;;;;;;;20.73;13.77;;;;;;;;;;6253647;28;20089;-60
2022/04/25 17:23:48;;;;;;;20.60;12.32;;;;;;;;;;6252031;28;20663;-60
2022/04/25 17:26:48;;;;;;;19.48;12.10;;;;;;;;;;6254732;28;21345;-60
2022/04/25 17:29:51;;;;;;;26.40;16.33;;;;;;;;;;6254886;28;20107;-60
2022/04/25 17:36:10;;;;;;;22.10;14.27;;;;;;;;;;6253267;28;20810;-60
